sensor_id;sensor_type;location;lat;lon;timestamp;temperature;humidity
13462;DHT22;6803;45.264;5.468;2022-09-29T00:02:05;12.80;99.90
13462;DHT22;6803;45.264;5.468;2022-09-29T00:04:36;12.90;99.90
13462;DHT22;6803;45.264;5.468;2022-09-29T00:07:07;12.90;99.90
13462;DHT22;6803;45.264;5.468;2022-09-29T00:09:37;12.90;99.90
13462;DHT22;6803;45.264;5.468;2022-09-29T00:12:08;12.90;99.90
13462;DHT22;6803;45.264;5.468;2022-09-29T00:14:39;12.90;99.90
13462;DHT22;6803;45.264;5.468;2022-09-29T00:17:11;12.90;99.90
13462;DHT22;6803;45.264;5.468;2022-09-29T00:19:42;12.90;99.90
13462;DHT22;6803;45.264;5.468;2022-09-29T00:22:12;12.90;99.90
13462;DHT22;6803;45.264;5.468;2022-09-29T00:24:43;12.90;99.90
13462;DHT22;6803;45.264;5.468;2022-09-29T00:27:15;12.90;99.90
13462;DHT22;6803;45.264;5.468;2022-09-29T00:29:46;12.90;99.90
13462;DHT22;6803;45.264;5.468;2022-09-29T00:32:17;12.80;99.90
13462;DHT22;6803;45.264;5.468;2022-09-29T00:34:47;12.80;99.90
13462;DHT22;6803;45.264;5.468;2022-09-29T00:37:19;12.70;99.90
13462;DHT22;6803;45.264;5.468;2022-09-29T00:39:49;12.70;99.90
13462;DHT22;6803;45.264;5.468;2022-09-29T00:42:22;12.70;99.90
13462;DHT22;6803;45.264;5.468;2022-09-29T00:45:22;12.60;99.90
13462;DHT22;6803;45.264;5.468;2022-09-29T00:47:59;12.60;99.90
13462;DHT22;6803;45.264;5.468;2022-09-29T00:50:34;12.60;99.90
13462;DHT22;6803;45.264;5.468;2022-09-29T00:53:06;12.60;99.90
13462;DHT22;6803;45.264;5.468;2022-09-29T00:55:44;12.60;99.90
13462;DHT22;6803;45.264;5.468;2022-09-29T00:58:20;12.60;99.90
13462;DHT22;6803;45.264;5.468;2022-09-29T01:00:50;12.70;99.90
13462;DHT22;6803;45.264;5.468;2022-09-29T01:03:24;12.80;99.90
13462;DHT22;6803;45.264;5.468;2022-09-29T01:06:15;12.80;99.90
13462;DHT22;6803;45.264;5.468;2022-09-29T01:08:50;12.80;99.90
13462;DHT22;6803;45.264;5.468;2022-09-29T01:11:24;12.70;99.90
13462;DHT22;6803;45.264;5.468;2022-09-29T01:13:57;12.80;99.90
13462;DHT22;6803;45.264;5.468;2022-09-29T01:16:30;12.80;99.90
13462;DHT22;6803;45.264;5.468;2022-09-29T01:19:02;12.80;99.90
13462;DHT22;6803;45.264;5.468;2022-09-29T01:21:38;12.80;99.90
13462;DHT22;6803;45.264;5.468;2022-09-29T01:27:19;12.80;99.90
13462;DHT22;6803;45.264;5.468;2022-09-29T01:30:17;12.70;99.90
13462;DHT22;6803;45.264;5.468;2022-09-29T01:33:19;12.70;99.90
13462;DHT22;6803;45.264;5.468;2022-09-29T01:35:57;12.60;99.90
13462;DHT22;6803;45.264;5.468;2022-09-29T01:38:37;12.70;99.90
13462;DHT22;6803;45.264;5.468;2022-09-29T01:41:11;12.60;99.90
13462;DHT22;6803;45.264;5.468;2022-09-29T01:43:44;12.60;99.90
13462;DHT22;6803;45.264;5.468;2022-09-29T01:46:20;12.60;99.90
13462;DHT22;6803;45.264;5.468;2022-09-29T01:48:54;12.60;99.90
13462;DHT22;6803;45.264;5.468;2022-09-29T01:51:28;12.60;99.90
13462;DHT22;6803;45.264;5.468;2022-09-29T01:54:02;12.60;99.90
13462;DHT22;6803;45.264;5.468;2022-09-29T01:56:35;12.70;99.90
13462;DHT22;6803;45.264;5.468;2022-09-29T01:59:09;12.70;99.90
13462;DHT22;6803;45.264;5.468;2022-09-29T02:01:42;12.70;99.90
13462;DHT22;6803;45.264;5.468;2022-09-29T02:04:16;12.70;99.90
13462;DHT22;6803;45.264;5.468;2022-09-29T02:06:52;12.70;99.90
13462;DHT22;6803;45.264;5.468;2022-09-29T02:09:25;12.70;99.90
13462;DHT22;6803;45.264;5.468;2022-09-29T02:11:58;12.80;99.90
13462;DHT22;6803;45.264;5.468;2022-09-29T02:14:34;12.80;99.90
13462;DHT22;6803;45.264;5.468;2022-09-29T02:17:06;12.80;99.90
13462;DHT22;6803;45.264;5.468;2022-09-29T02:19:39;12.80;99.90
13462;DHT22;6803;45.264;5.468;2022-09-29T02:22:12;12.80;99.90
13462;DHT22;6803;45.264;5.468;2022-09-29T02:24:44;12.90;99.90
13462;DHT22;6803;45.264;5.468;2022-09-29T02:27:15;12.80;99.90
13462;DHT22;6803;45.264;5.468;2022-09-29T02:29:46;12.80;99.90
13462;DHT22;6803;45.264;5.468;2022-09-29T02:32:18;12.80;99.90
13462;DHT22;6803;45.264;5.468;2022-09-29T02:34:51;12.80;99.90
13462;DHT22;6803;45.264;5.468;2022-09-29T02:37:46;12.80;99.90
13462;DHT22;6803;45.264;5.468;2022-09-29T02:40:24;12.90;99.90
13462;DHT22;6803;45.264;5.468;2022-09-29T02:45:55;12.90;99.90
13462;DHT22;6803;45.264;5.468;2022-09-29T02:48:39;12.90;99.90
13462;DHT22;6803;45.264;5.468;2022-09-29T02:51:14;12.90;99.90
13462;DHT22;6803;45.264;5.468;2022-09-29T02:53:53;12.90;99.90
13462;DHT22;6803;45.264;5.468;2022-09-29T02:56:28;12.80;99.90
13462;DHT22;6803;45.264;5.468;2022-09-29T02:59:02;12.60;99.90
13462;DHT22;6803;45.264;5.468;2022-09-29T03:01:33;12.50;99.90
13462;DHT22;6803;45.264;5.468;2022-09-29T03:04:04;12.40;99.90
13462;DHT22;6803;45.264;5.468;2022-09-29T03:06:36;12.30;99.90
13462;DHT22;6803;45.264;5.468;2022-09-29T03:09:07;12.30;99.90
13462;DHT22;6803;45.264;5.468;2022-09-29T03:11:38;12.30;99.90
13462;DHT22;6803;45.264;5.468;2022-09-29T03:14:09;12.30;99.90
13462;DHT22;6803;45.264;5.468;2022-09-29T03:16:39;12.20;99.90
13462;DHT22;6803;45.264;5.468;2022-09-29T03:19:11;12.00;99.90
13462;DHT22;6803;45.264;5.468;2022-09-29T03:21:41;12.00;99.90
13462;DHT22;6803;45.264;5.468;2022-09-29T03:24:12;12.00;99.90
13462;DHT22;6803;45.264;5.468;2022-09-29T03:26:43;12.10;99.90
13462;DHT22;6803;45.264;5.468;2022-09-29T03:29:14;12.10;99.90
13462;DHT22;6803;45.264;5.468;2022-09-29T03:31:45;12.20;99.90
13462;DHT22;6803;45.264;5.468;2022-09-29T03:34:16;12.20;99.90
13462;DHT22;6803;45.264;5.468;2022-09-29T03:36:46;12.30;99.90
13462;DHT22;6803;45.264;5.468;2022-09-29T03:39:17;12.30;99.90
13462;DHT22;6803;45.264;5.468;2022-09-29T03:42:06;12.40;99.90
13462;DHT22;6803;45.264;5.468;2022-09-29T03:44:37;12.50;99.90
13462;DHT22;6803;45.264;5.468;2022-09-29T03:47:08;12.60;99.90
13462;DHT22;6803;45.264;5.468;2022-09-29T03:49:40;12.50;99.90
13462;DHT22;6803;45.264;5.468;2022-09-29T03:52:10;12.50;99.90
13462;DHT22;6803;45.264;5.468;2022-09-29T03:54:41;12.50;99.90
13462;DHT22;6803;45.264;5.468;2022-09-29T03:57:11;12.40;99.90
13462;DHT22;6803;45.264;5.468;2022-09-29T03:59:42;12.40;99.90
13462;DHT22;6803;45.264;5.468;2022-09-29T04:02:14;12.40;99.90
13462;DHT22;6803;45.264;5.468;2022-09-29T04:04:46;12.40;99.90
13462;DHT22;6803;45.264;5.468;2022-09-29T04:07:17;12.30;99.90
13462;DHT22;6803;45.264;5.468;2022-09-29T04:09:48;12.40;99.90
13462;DHT22;6803;45.264;5.468;2022-09-29T04:12:18;12.30;99.90
13462;DHT22;6803;45.264;5.468;2022-09-29T04:14:49;12.30;99.90
13462;DHT22;6803;45.264;5.468;2022-09-29T04:17:19;12.30;99.90
13462;DHT22;6803;45.264;5.468;2022-09-29T04:19:50;12.20;99.90
13462;DHT22;6803;45.264;5.468;2022-09-29T04:22:20;12.20;99.90
13462;DHT22;6803;45.264;5.468;2022-09-29T04:27:28;12.20;99.90
13462;DHT22;6803;45.264;5.468;2022-09-29T04:29:59;12.20;99.90
13462;DHT22;6803;45.264;5.468;2022-09-29T04:32:30;12.20;99.90
13462;DHT22;6803;45.264;5.468;2022-09-29T04:35:00;12.10;99.90
13462;DHT22;6803;45.264;5.468;2022-09-29T04:37:31;12.20;99.90
13462;DHT22;6803;45.264;5.468;2022-09-29T04:40:02;12.10;99.90
13462;DHT22;6803;45.264;5.468;2022-09-29T04:42:34;12.10;99.90
13462;DHT22;6803;45.264;5.468;2022-09-29T04:45:06;12.10;99.90
13462;DHT22;6803;45.264;5.468;2022-09-29T04:47:37;12.20;99.90
13462;DHT22;6803;45.264;5.468;2022-09-29T04:50:08;12.20;99.90
13462;DHT22;6803;45.264;5.468;2022-09-29T04:52:41;12.20;99.90
13462;DHT22;6803;45.264;5.468;2022-09-29T04:55:12;12.20;99.90
13462;DHT22;6803;45.264;5.468;2022-09-29T04:57:43;12.20;99.90
13462;DHT22;6803;45.264;5.468;2022-09-29T05:00:15;12.10;99.90
13462;DHT22;6803;45.264;5.468;2022-09-29T05:02:46;12.00;99.90
13462;DHT22;6803;45.264;5.468;2022-09-29T05:05:18;12.10;99.90
13462;DHT22;6803;45.264;5.468;2022-09-29T05:07:48;12.00;99.90
13462;DHT22;6803;45.264;5.468;2022-09-29T05:10:19;12.00;99.90
13462;DHT22;6803;45.264;5.468;2022-09-29T05:12:51;12.00;99.90
13462;DHT22;6803;45.264;5.468;2022-09-29T05:15:22;12.00;99.90
13462;DHT22;6803;45.264;5.468;2022-09-29T05:17:54;12.10;99.90
13462;DHT22;6803;45.264;5.468;2022-09-29T05:20:24;12.10;99.90
13462;DHT22;6803;45.264;5.468;2022-09-29T05:22:58;12.00;99.90
13462;DHT22;6803;45.264;5.468;2022-09-29T05:25:29;12.00;99.90
13462;DHT22;6803;45.264;5.468;2022-09-29T05:28:01;12.00;99.90
13462;DHT22;6803;45.264;5.468;2022-09-29T05:30:32;12.00;99.90
13462;DHT22;6803;45.264;5.468;2022-09-29T05:33:02;12.00;99.90
13462;DHT22;6803;45.264;5.468;2022-09-29T05:35:33;12.00;99.90
13462;DHT22;6803;45.264;5.468;2022-09-29T05:38:04;11.80;99.90
13462;DHT22;6803;45.264;5.468;2022-09-29T05:40:36;11.90;99.90
13462;DHT22;6803;45.264;5.468;2022-09-29T05:43:06;11.90;99.90
13462;DHT22;6803;45.264;5.468;2022-09-29T05:45:37;11.90;99.90
13462;DHT22;6803;45.264;5.468;2022-09-29T05:48:08;12.00;99.90
13462;DHT22;6803;45.264;5.468;2022-09-29T05:50:39;11.90;99.90
13462;DHT22;6803;45.264;5.468;2022-09-29T05:53:11;11.90;99.90
13462;DHT22;6803;45.264;5.468;2022-09-29T05:55:43;11.80;99.90
13462;DHT22;6803;45.264;5.468;2022-09-29T05:58:13;11.90;99.90
13462;DHT22;6803;45.264;5.468;2022-09-29T06:00:44;12.00;99.90
13462;DHT22;6803;45.264;5.468;2022-09-29T06:03:15;12.00;99.90
13462;DHT22;6803;45.264;5.468;2022-09-29T06:05:46;12.00;99.90
13462;DHT22;6803;45.264;5.468;2022-09-29T06:08:16;12.00;99.90
13462;DHT22;6803;45.264;5.468;2022-09-29T06:10:47;12.00;99.90
13462;DHT22;6803;45.264;5.468;2022-09-29T06:13:18;12.00;99.90
13462;DHT22;6803;45.264;5.468;2022-09-29T06:15:49;12.00;99.90
13462;DHT22;6803;45.264;5.468;2022-09-29T06:18:20;12.00;99.90
13462;DHT22;6803;45.264;5.468;2022-09-29T06:20:50;12.10;99.90
13462;DHT22;6803;45.264;5.468;2022-09-29T06:23:21;12.20;99.90
13462;DHT22;6803;45.264;5.468;2022-09-29T06:25:56;12.20;99.90
13462;DHT22;6803;45.264;5.468;2022-09-29T06:28:27;12.20;99.90
13462;DHT22;6803;45.264;5.468;2022-09-29T06:31:00;12.30;99.90
13462;DHT22;6803;45.264;5.468;2022-09-29T06:33:32;12.30;99.90
13462;DHT22;6803;45.264;5.468;2022-09-29T06:36:09;12.30;99.90
13462;DHT22;6803;45.264;5.468;2022-09-29T06:38:58;12.30;99.90
13462;DHT22;6803;45.264;5.468;2022-09-29T06:41:29;12.40;99.90
13462;DHT22;6803;45.264;5.468;2022-09-29T06:44:00;12.50;99.90
13462;DHT22;6803;45.264;5.468;2022-09-29T06:46:31;12.40;99.90
13462;DHT22;6803;45.264;5.468;2022-09-29T06:49:02;12.50;99.90
13462;DHT22;6803;45.264;5.468;2022-09-29T06:51:34;12.60;99.90
13462;DHT22;6803;45.264;5.468;2022-09-29T06:54:06;12.80;99.90
13462;DHT22;6803;45.264;5.468;2022-09-29T06:56:39;12.80;99.90
13462;DHT22;6803;45.264;5.468;2022-09-29T06:59:10;12.70;99.90
13462;DHT22;6803;45.264;5.468;2022-09-29T07:01:41;12.70;99.90
13462;DHT22;6803;45.264;5.468;2022-09-29T07:04:12;12.80;99.90
13462;DHT22;6803;45.264;5.468;2022-09-29T07:06:43;12.80;99.90
13462;DHT22;6803;45.264;5.468;2022-09-29T07:09:14;12.70;99.90
13462;DHT22;6803;45.264;5.468;2022-09-29T07:11:46;12.80;99.90
13462;DHT22;6803;45.264;5.468;2022-09-29T07:14:19;12.90;99.90
13462;DHT22;6803;45.264;5.468;2022-09-29T07:16:51;12.90;99.90
13462;DHT22;6803;45.264;5.468;2022-09-29T07:19:22;12.90;99.90
13462;DHT22;6803;45.264;5.468;2022-09-29T07:21:53;12.90;99.90
13462;DHT22;6803;45.264;5.468;2022-09-29T07:24:24;13.00;99.90
13462;DHT22;6803;45.264;5.468;2022-09-29T07:26:55;13.00;99.90
13462;DHT22;6803;45.264;5.468;2022-09-29T07:29:26;13.00;99.90
13462;DHT22;6803;45.264;5.468;2022-09-29T07:31:59;13.00;99.90
13462;DHT22;6803;45.264;5.468;2022-09-29T07:34:30;13.10;99.90
13462;DHT22;6803;45.264;5.468;2022-09-29T07:37:00;13.00;99.90
13462;DHT22;6803;45.264;5.468;2022-09-29T07:39:31;13.20;99.90
13462;DHT22;6803;45.264;5.468;2022-09-29T07:42:02;13.20;99.90
13462;DHT22;6803;45.264;5.468;2022-09-29T07:44:35;13.10;99.90
13462;DHT22;6803;45.264;5.468;2022-09-29T07:47:06;13.10;99.90
13462;DHT22;6803;45.264;5.468;2022-09-29T07:49:36;13.20;99.90
13462;DHT22;6803;45.264;5.468;2022-09-29T07:52:07;13.30;99.90
13462;DHT22;6803;45.264;5.468;2022-09-29T07:54:38;13.20;99.90
13462;DHT22;6803;45.264;5.468;2022-09-29T07:57:09;13.30;99.90
13462;DHT22;6803;45.264;5.468;2022-09-29T07:59:40;13.30;99.90
13462;DHT22;6803;45.264;5.468;2022-09-29T08:02:12;13.20;99.90
13462;DHT22;6803;45.264;5.468;2022-09-29T08:04:43;13.20;99.90
13462;DHT22;6803;45.264;5.468;2022-09-29T08:07:14;13.20;99.90
13462;DHT22;6803;45.264;5.468;2022-09-29T08:09:45;13.40;99.90
13462;DHT22;6803;45.264;5.468;2022-09-29T08:12:15;13.20;99.90
13462;DHT22;6803;45.264;5.468;2022-09-29T08:14:46;13.40;99.90
13462;DHT22;6803;45.264;5.468;2022-09-29T08:17:17;13.40;99.90
13462;DHT22;6803;45.264;5.468;2022-09-29T08:19:48;13.40;99.90
13462;DHT22;6803;45.264;5.468;2022-09-29T08:22:19;13.40;99.90
13462;DHT22;6803;45.264;5.468;2022-09-29T08:24:50;13.30;99.90
13462;DHT22;6803;45.264;5.468;2022-09-29T08:27:21;13.30;99.90
13462;DHT22;6803;45.264;5.468;2022-09-29T08:29:51;13.40;99.90
13462;DHT22;6803;45.264;5.468;2022-09-29T08:32:22;13.30;99.90
13462;DHT22;6803;45.264;5.468;2022-09-29T08:34:53;13.40;99.90
13462;DHT22;6803;45.264;5.468;2022-09-29T08:37:24;13.40;99.90
13462;DHT22;6803;45.264;5.468;2022-09-29T08:39:54;13.30;99.90
13462;DHT22;6803;45.264;5.468;2022-09-29T08:42:28;13.20;99.90
13462;DHT22;6803;45.264;5.468;2022-09-29T08:45:02;13.30;99.90
13462;DHT22;6803;45.264;5.468;2022-09-29T08:47:38;13.50;99.90
13462;DHT22;6803;45.264;5.468;2022-09-29T08:50:15;13.70;99.90
13462;DHT22;6803;45.264;5.468;2022-09-29T08:53:06;13.70;99.90
13462;DHT22;6803;45.264;5.468;2022-09-29T08:55:42;13.80;99.90
13462;DHT22;6803;45.264;5.468;2022-09-29T08:58:15;13.80;99.90
13462;DHT22;6803;45.264;5.468;2022-09-29T09:00:51;14.00;99.90
13462;DHT22;6803;45.264;5.468;2022-09-29T09:03:36;14.10;99.90
13462;DHT22;6803;45.264;5.468;2022-09-29T09:06:15;14.00;99.90
13462;DHT22;6803;45.264;5.468;2022-09-29T09:09:12;14.10;99.90
13462;DHT22;6803;45.264;5.468;2022-09-29T09:14:38;14.00;99.90
13462;DHT22;6803;45.264;5.468;2022-09-29T09:17:14;14.00;99.90
13462;DHT22;6803;45.264;5.468;2022-09-29T09:20:01;13.80;99.90
13462;DHT22;6803;45.264;5.468;2022-09-29T09:22:37;13.90;99.90
13462;DHT22;6803;45.264;5.468;2022-09-29T09:25:16;14.00;99.90
13462;DHT22;6803;45.264;5.468;2022-09-29T09:27:47;14.00;99.90
13462;DHT22;6803;45.264;5.468;2022-09-29T09:30:20;14.10;99.90
13462;DHT22;6803;45.264;5.468;2022-09-29T09:32:53;14.20;99.90
13462;DHT22;6803;45.264;5.468;2022-09-29T09:35:29;14.30;99.90
13462;DHT22;6803;45.264;5.468;2022-09-29T09:38:03;14.30;99.90
13462;DHT22;6803;45.264;5.468;2022-09-29T09:40:39;14.20;99.90
13462;DHT22;6803;45.264;5.468;2022-09-29T09:43:15;14.20;99.90
13462;DHT22;6803;45.264;5.468;2022-09-29T09:45:53;14.20;99.90
13462;DHT22;6803;45.264;5.468;2022-09-29T09:48:29;14.10;99.90
13462;DHT22;6803;45.264;5.468;2022-09-29T09:53:47;14.00;99.90
13462;DHT22;6803;45.264;5.468;2022-09-29T09:56:22;14.00;99.90
13462;DHT22;6803;45.264;5.468;2022-09-29T09:59:10;14.10;99.90
13462;DHT22;6803;45.264;5.468;2022-09-29T10:01:42;14.30;99.90
13462;DHT22;6803;45.264;5.468;2022-09-29T10:04:13;14.30;99.90
13462;DHT22;6803;45.264;5.468;2022-09-29T10:06:44;14.30;99.90
13462;DHT22;6803;45.264;5.468;2022-09-29T10:09:16;14.30;99.90
13462;DHT22;6803;45.264;5.468;2022-09-29T10:11:47;14.30;99.90
13462;DHT22;6803;45.264;5.468;2022-09-29T10:14:20;14.30;99.90
13462;DHT22;6803;45.264;5.468;2022-09-29T10:16:53;14.10;99.90
13462;DHT22;6803;45.264;5.468;2022-09-29T10:22:23;14.00;99.90
13462;DHT22;6803;45.264;5.468;2022-09-29T10:24:56;14.10;99.90
13462;DHT22;6803;45.264;5.468;2022-09-29T10:27:29;14.20;99.90
13462;DHT22;6803;45.264;5.468;2022-09-29T10:30:00;14.20;99.90
13462;DHT22;6803;45.264;5.468;2022-09-29T10:32:33;14.10;99.90
13462;DHT22;6803;45.264;5.468;2022-09-29T10:35:15;14.10;99.90
13462;DHT22;6803;45.264;5.468;2022-09-29T10:37:51;14.10;99.90
13462;DHT22;6803;45.264;5.468;2022-09-29T10:40:23;14.20;99.90
13462;DHT22;6803;45.264;5.468;2022-09-29T10:42:55;14.20;99.90
13462;DHT22;6803;45.264;5.468;2022-09-29T10:45:28;14.20;99.90
13462;DHT22;6803;45.264;5.468;2022-09-29T10:48:12;14.00;99.90
13462;DHT22;6803;45.264;5.468;2022-09-29T10:50:51;13.90;99.90
13462;DHT22;6803;45.264;5.468;2022-09-29T10:53:27;13.70;99.90
13462;DHT22;6803;45.264;5.468;2022-09-29T10:56:02;13.70;99.90
13462;DHT22;6803;45.264;5.468;2022-09-29T10:58:35;13.60;99.90
13462;DHT22;6803;45.264;5.468;2022-09-29T11:01:11;13.30;99.90
13462;DHT22;6803;45.264;5.468;2022-09-29T11:03:46;13.20;99.90
13462;DHT22;6803;45.264;5.468;2022-09-29T11:09:02;12.90;99.90
13462;DHT22;6803;45.264;5.468;2022-09-29T11:11:35;12.80;99.90
13462;DHT22;6803;45.264;5.468;2022-09-29T11:14:07;12.60;99.90
13462;DHT22;6803;45.264;5.468;2022-09-29T11:16:39;12.70;99.90
13462;DHT22;6803;45.264;5.468;2022-09-29T11:25:26;12.30;99.90
13462;DHT22;6803;45.264;5.468;2022-09-29T11:28:09;12.30;99.90
13462;DHT22;6803;45.264;5.468;2022-09-29T11:30:46;12.30;99.90
13462;DHT22;6803;45.264;5.468;2022-09-29T11:33:24;12.20;99.90
13462;DHT22;6803;45.264;5.468;2022-09-29T11:35:59;12.40;99.90
13462;DHT22;6803;45.264;5.468;2022-09-29T11:38:53;12.30;99.90
13462;DHT22;6803;45.264;5.468;2022-09-29T11:41:46;12.30;99.90
13462;DHT22;6803;45.264;5.468;2022-09-29T11:47:17;12.50;99.90
13462;DHT22;6803;45.264;5.468;2022-09-29T11:49:56;12.50;99.90
13462;DHT22;6803;45.264;5.468;2022-09-29T11:52:47;12.10;99.90
13462;DHT22;6803;45.264;5.468;2022-09-29T11:55:26;11.90;99.90
13462;DHT22;6803;45.264;5.468;2022-09-29T11:58:04;11.80;99.90
13462;DHT22;6803;45.264;5.468;2022-09-29T12:00:48;11.70;99.90
13462;DHT22;6803;45.264;5.468;2022-09-29T12:03:35;11.70;99.90
13462;DHT22;6803;45.264;5.468;2022-09-29T12:09:18;11.90;99.90
13462;DHT22;6803;45.264;5.468;2022-09-29T12:11:55;11.80;99.90
13462;DHT22;6803;45.264;5.468;2022-09-29T12:14:30;12.00;99.90
13462;DHT22;6803;45.264;5.468;2022-09-29T12:17:08;12.20;99.90
13462;DHT22;6803;45.264;5.468;2022-09-29T12:19:40;12.10;99.90
13462;DHT22;6803;45.264;5.468;2022-09-29T12:22:16;12.20;99.90
13462;DHT22;6803;45.264;5.468;2022-09-29T12:24:50;12.30;99.90
13462;DHT22;6803;45.264;5.468;2022-09-29T12:27:23;12.50;99.90
13462;DHT22;6803;45.264;5.468;2022-09-29T12:29:56;12.70;99.90
13462;DHT22;6803;45.264;5.468;2022-09-29T12:32:30;12.90;99.90
13462;DHT22;6803;45.264;5.468;2022-09-29T12:35:08;13.00;99.90
13462;DHT22;6803;45.264;5.468;2022-09-29T12:37:40;13.00;99.90
13462;DHT22;6803;45.264;5.468;2022-09-29T12:40:20;13.00;99.90
13462;DHT22;6803;45.264;5.468;2022-09-29T12:45:45;13.20;99.90
13462;DHT22;6803;45.264;5.468;2022-09-29T12:48:28;13.20;99.90
13462;DHT22;6803;45.264;5.468;2022-09-29T12:51:01;13.40;99.90
13462;DHT22;6803;45.264;5.468;2022-09-29T12:53:36;13.50;99.90
13462;DHT22;6803;45.264;5.468;2022-09-29T12:56:27;13.30;99.90
13462;DHT22;6803;45.264;5.468;2022-09-29T12:59:03;13.40;99.90
13462;DHT22;6803;45.264;5.468;2022-09-29T13:01:36;13.40;99.90
13462;DHT22;6803;45.264;5.468;2022-09-29T13:11:04;13.90;99.90
13462;DHT22;6803;45.264;5.468;2022-09-29T13:14:04;13.90;99.90
13462;DHT22;6803;45.264;5.468;2022-09-29T13:16:48;13.90;99.90
13462;DHT22;6803;45.264;5.468;2022-09-29T13:19:55;13.70;99.90
13462;DHT22;6803;45.264;5.468;2022-09-29T13:22:59;13.70;99.90
13462;DHT22;6803;45.264;5.468;2022-09-29T13:25:34;13.60;99.90
13462;DHT22;6803;45.264;5.468;2022-09-29T13:28:11;13.30;99.90
13462;DHT22;6803;45.264;5.468;2022-09-29T13:30:42;13.10;99.90
13462;DHT22;6803;45.264;5.468;2022-09-29T13:33:17;12.90;99.90
13462;DHT22;6803;45.264;5.468;2022-09-29T13:35:49;13.00;99.90
13462;DHT22;6803;45.264;5.468;2022-09-29T13:38:22;13.00;99.90
13462;DHT22;6803;45.264;5.468;2022-09-29T13:41:12;13.00;99.90
13462;DHT22;6803;45.264;5.468;2022-09-29T13:46:53;13.20;99.90
13462;DHT22;6803;45.264;5.468;2022-09-29T13:49:27;13.70;99.90
13462;DHT22;6803;45.264;5.468;2022-09-29T13:51:59;14.60;99.90
13462;DHT22;6803;45.264;5.468;2022-09-29T13:54:39;14.30;99.90
13462;DHT22;6803;45.264;5.468;2022-09-29T13:57:27;14.20;99.90
13462;DHT22;6803;45.264;5.468;2022-09-29T14:00:18;14.00;99.90
13462;DHT22;6803;45.264;5.468;2022-09-29T14:06:16;15.30;99.90
13462;DHT22;6803;45.264;5.468;2022-09-29T14:08:51;14.60;99.90
13462;DHT22;6803;45.264;5.468;2022-09-29T14:11:42;14.20;99.90
13462;DHT22;6803;45.264;5.468;2022-09-29T14:14:17;15.10;99.90
13462;DHT22;6803;45.264;5.468;2022-09-29T14:16:55;14.90;99.90
13462;DHT22;6803;45.264;5.468;2022-09-29T14:19:35;14.90;99.90
13462;DHT22;6803;45.264;5.468;2022-09-29T14:25:26;14.30;99.90
13462;DHT22;6803;45.264;5.468;2022-09-29T14:28:02;14.40;99.90
13462;DHT22;6803;45.264;5.468;2022-09-29T14:30:42;14.00;99.90
13462;DHT22;6803;45.264;5.468;2022-09-29T14:33:18;14.10;99.90
13462;DHT22;6803;45.264;5.468;2022-09-29T14:36:00;13.90;99.90
13462;DHT22;6803;45.264;5.468;2022-09-29T14:38:29;13.70;99.90
13462;DHT22;6803;45.264;5.468;2022-09-29T14:41:19;13.60;99.90
13462;DHT22;6803;45.264;5.468;2022-09-29T14:43:38;13.50;99.90
13462;DHT22;6803;45.264;5.468;2022-09-29T14:49:38;13.40;99.90
13462;DHT22;6803;45.264;5.468;2022-09-29T14:52:34;13.30;99.90
13462;DHT22;6803;45.264;5.468;2022-09-29T14:55:11;13.20;99.90
13462;DHT22;6803;45.264;5.468;2022-09-29T14:57:51;13.00;99.90
13462;DHT22;6803;45.264;5.468;2022-09-29T15:00:24;12.80;99.90
13462;DHT22;6803;45.264;5.468;2022-09-29T15:02:57;12.60;99.90
13462;DHT22;6803;45.264;5.468;2022-09-29T15:05:31;12.60;99.90
13462;DHT22;6803;45.264;5.468;2022-09-29T15:08:18;12.50;99.90
13462;DHT22;6803;45.264;5.468;2022-09-29T15:10:46;12.40;99.90
13462;DHT22;6803;45.264;5.468;2022-09-29T15:13:19;12.40;99.90
13462;DHT22;6803;45.264;5.468;2022-09-29T15:18:39;12.40;99.90
13462;DHT22;6803;45.264;5.468;2022-09-29T15:21:16;12.10;99.90
13462;DHT22;6803;45.264;5.468;2022-09-29T15:23:59;12.00;99.90
13462;DHT22;6803;45.264;5.468;2022-09-29T15:26:33;12.10;99.90
13462;DHT22;6803;45.264;5.468;2022-09-29T15:29:07;12.20;99.90
13462;DHT22;6803;45.264;5.468;2022-09-29T15:31:42;12.20;99.90
13462;DHT22;6803;45.264;5.468;2022-09-29T15:34:16;12.10;99.90
13462;DHT22;6803;45.264;5.468;2022-09-29T15:36:50;12.10;99.90
13462;DHT22;6803;45.264;5.468;2022-09-29T15:42:36;12.10;99.90
13462;DHT22;6803;45.264;5.468;2022-09-29T15:45:15;12.00;99.90
13462;DHT22;6803;45.264;5.468;2022-09-29T15:47:43;12.00;99.90
13462;DHT22;6803;45.264;5.468;2022-09-29T15:50:19;12.00;99.90
13462;DHT22;6803;45.264;5.468;2022-09-29T15:52:50;12.00;99.90
13462;DHT22;6803;45.264;5.468;2022-09-29T15:55:23;12.00;99.90
13462;DHT22;6803;45.264;5.468;2022-09-29T15:57:54;11.90;99.90
13462;DHT22;6803;45.264;5.468;2022-09-29T16:00:57;11.80;99.90
13462;DHT22;6803;45.264;5.468;2022-09-29T16:03:35;11.90;99.90
13462;DHT22;6803;45.264;5.468;2022-09-29T16:06:16;11.80;99.90
13462;DHT22;6803;45.264;5.468;2022-09-29T16:08:49;11.70;99.90
13462;DHT22;6803;45.264;5.468;2022-09-29T16:11:25;11.60;99.90
13462;DHT22;6803;45.264;5.468;2022-09-29T16:13:58;11.60;99.90
13462;DHT22;6803;45.264;5.468;2022-09-29T16:16:34;11.60;99.90
13462;DHT22;6803;45.264;5.468;2022-09-29T16:19:12;11.40;99.90
13462;DHT22;6803;45.264;5.468;2022-09-29T16:21:44;11.30;99.90
13462;DHT22;6803;45.264;5.468;2022-09-29T16:24:17;11.30;99.90
13462;DHT22;6803;45.264;5.468;2022-09-29T16:26:50;11.30;99.90
13462;DHT22;6803;45.264;5.468;2022-09-29T16:29:38;11.20;99.90
13462;DHT22;6803;45.264;5.468;2022-09-29T16:32:36;11.20;99.90
13462;DHT22;6803;45.264;5.468;2022-09-29T16:38:31;11.20;99.90
13462;DHT22;6803;45.264;5.468;2022-09-29T16:44:02;11.10;99.90
13462;DHT22;6803;45.264;5.468;2022-09-29T16:46:40;11.10;99.90
13462;DHT22;6803;45.264;5.468;2022-09-29T16:49:17;11.10;99.90
13462;DHT22;6803;45.264;5.468;2022-09-29T16:51:49;11.10;99.90
13462;DHT22;6803;45.264;5.468;2022-09-29T16:54:24;11.00;99.90
13462;DHT22;6803;45.264;5.468;2022-09-29T16:57:22;11.00;99.90
13462;DHT22;6803;45.264;5.468;2022-09-29T16:59:55;10.90;99.90
13462;DHT22;6803;45.264;5.468;2022-09-29T17:02:27;11.00;99.90
13462;DHT22;6803;45.264;5.468;2022-09-29T17:04:58;11.00;99.90
13462;DHT22;6803;45.264;5.468;2022-09-29T17:07:31;11.00;99.90
13462;DHT22;6803;45.264;5.468;2022-09-29T17:10:04;10.90;99.90
13462;DHT22;6803;45.264;5.468;2022-09-29T17:12:37;10.90;99.90
13462;DHT22;6803;45.264;5.468;2022-09-29T17:15:13;10.90;99.90
13462;DHT22;6803;45.264;5.468;2022-09-29T17:17:46;10.90;99.90
13462;DHT22;6803;45.264;5.468;2022-09-29T17:20:19;10.80;99.90
13462;DHT22;6803;45.264;5.468;2022-09-29T17:22:52;10.80;99.90
13462;DHT22;6803;45.264;5.468;2022-09-29T17:25:23;10.80;99.90
13462;DHT22;6803;45.264;5.468;2022-09-29T17:27:53;10.70;99.90
13462;DHT22;6803;45.264;5.468;2022-09-29T17:30:44;10.60;99.90
13462;DHT22;6803;45.264;5.468;2022-09-29T17:33:17;10.50;99.90
13462;DHT22;6803;45.264;5.468;2022-09-29T17:35:49;10.50;99.90
13462;DHT22;6803;45.264;5.468;2022-09-29T17:38:23;10.50;99.90
13462;DHT22;6803;45.264;5.468;2022-09-29T17:40:57;10.40;99.90